Time;durP1;ratioP1;P1;durP2;ratioP2;P2;SDS_P1;SDS_P2;PMS_P1;PMS_P2;Temp;Humidity;BMP_temperature;BMP_pressure;BME280_temperature;BME280_humidity;BME280_pressure;Samples;Min_cycle;Max_cycle;Signal;HPM_P1;HPM_P2
2023/10/25 00:01:05;;;;;;;19.73;5.32;;;;;;;;;;4972818;28;20055;-71
2023/10/25 00:03:31;;;;;;;12.75;4.68;;;;;;;;;;4972673;28;20027;-71
2023/10/25 00:05:57;;;;;;;14.43;5.10;;;;;;;;;;4972988;28;20368;-71
2023/10/25 00:08:22;;;;;;;15.95;4.90;;;;;;;;;;4972681;28;20045;-70
2023/10/25 00:10:48;;;;;;;15.65;4.97;;;;;;;;;;4972366;28;20053;-72
2023/10/25 00:13:13;;;;;;;13.77;4.63;;;;;;;;;;4972519;28;20125;-70
2023/10/25 00:15:40;;;;;;;16.33;4.65;;;;;;;;;;4972735;28;20027;-70
2023/10/25 00:18:05;;;;;;;15.82;4.57;;;;;;;;;;4972848;28;20038;-70
2023/10/25 00:20:31;;;;;;;20.38;4.65;;;;;;;;;;4973056;28;20384;-70
2023/10/25 00:22:57;;;;;;;14.43;4.38;;;;;;;;;;4972652;28;20026;-70
2023/10/25 00:25:22;;;;;;;10.80;3.95;;;;;;;;;;4972577;28;20085;-72
2023/10/25 00:27:48;;;;;;;17.35;4.68;;;;;;;;;;4972577;28;20403;-69
2023/10/25 00:30:13;;;;;;;13.15;4.13;;;;;;;;;;4972650;28;20041;-69
2023/10/25 00:32:39;;;;;;;17.73;4.70;;;;;;;;;;4972804;28;20030;-70
2023/10/25 00:35:05;;;;;;;12.93;4.47;;;;;;;;;;4972236;28;20490;-70
2023/10/25 00:37:31;;;;;;;12.48;4.35;;;;;;;;;;4971604;28;20061;-70
2023/10/25 00:39:57;;;;;;;16.45;4.85;;;;;;;;;;4972365;28;20031;-70
2023/10/25 00:42:22;;;;;;;15.25;4.68;;;;;;;;;;4972612;28;20117;-70
2023/10/25 00:44:48;;;;;;;13.65;4.43;;;;;;;;;;4972259;28;20023;-71
2023/10/25 00:47:15;;;;;;;10.57;3.85;;;;;;;;;;4972322;28;20039;-71
2023/10/25 00:49:41;;;;;;;14.57;4.30;;;;;;;;;;4972272;28;20046;-69
2023/10/25 00:52:06;;;;;;;14.15;4.32;;;;;;;;;;4972024;28;20031;-69
2023/10/25 00:54:32;;;;;;;16.50;4.95;;;;;;;;;;4972264;28;20044;-70
2023/10/25 00:56:57;;;;;;;14.05;5.22;;;;;;;;;;4972144;28;20046;-71
2023/10/25 00:59:24;;;;;;;13.32;4.10;;;;;;;;;;4972414;28;20027;-70
2023/10/25 01:01:50;;;;;;;16.70;4.88;;;;;;;;;;4972032;28;20038;-70
2023/10/25 01:04:16;;;;;;;13.75;4.53;;;;;;;;;;4972140;28;20026;-69
2023/10/25 01:06:42;;;;;;;10.52;4.07;;;;;;;;;;4972151;28;20038;-70
2023/10/25 01:09:07;;;;;;;12.07;4.80;;;;;;;;;;4973463;28;20039;-69
2023/10/25 01:11:33;;;;;;;14.00;4.78;;;;;;;;;;4973894;28;20053;-70
2023/10/25 01:13:59;;;;;;;10.70;4.00;;;;;;;;;;4973800;28;20456;-69
2023/10/25 01:16:24;;;;;;;12.40;4.00;;;;;;;;;;4977799;28;20495;-69
2023/10/25 01:18:50;;;;;;;11.35;3.90;;;;;;;;;;4981470;28;20061;-69
2023/10/25 01:21:16;;;;;;;14.07;4.45;;;;;;;;;;4982597;28;20031;-69
2023/10/25 01:23:41;;;;;;;12.48;3.95;;;;;;;;;;4982866;28;20431;-69
2023/10/25 01:26:07;;;;;;;11.57;3.83;;;;;;;;;;4979608;28;20421;-69
2023/10/25 01:28:32;;;;;;;13.05;4.18;;;;;;;;;;4981957;28;20019;-69
2023/10/25 01:30:59;;;;;;;10.90;3.67;;;;;;;;;;4982027;28;20038;-70
2023/10/25 01:33:24;;;;;;;12.05;4.30;;;;;;;;;;4976341;28;20038;-69
2023/10/25 01:35:51;;;;;;;12.05;4.05;;;;;;;;;;4981714;28;20044;-69
2023/10/25 01:38:17;;;;;;;12.65;3.78;;;;;;;;;;4980519;28;20031;-69
2023/10/25 07:41:24;;;;;;;3.70;2.10;;;;;;;;;;4991782;23;20077;-68
2023/10/25 07:43:50;;;;;;;2.08;1.88;;;;;;;;;;4974351;28;20480;-68
2023/10/25 07:46:16;;;;;;;2.45;1.92;;;;;;;;;;4973618;28;20034;-70
2023/10/25 07:48:41;;;;;;;1.98;1.77;;;;;;;;;;4973562;28;20030;-69
2023/10/25 07:51:07;;;;;;;2.33;2.00;;;;;;;;;;4972776;28;20038;-69
2023/10/25 07:53:32;;;;;;;3.92;2.17;;;;;;;;;;4973512;28;20074;-70
2023/10/25 07:56:02;;;;;;;2.20;1.80;;;;;;;;;;4973298;28;20475;-70
2023/10/25 07:58:28;;;;;;;3.25;1.80;;;;;;;;;;4973362;28;20393;-70
2023/10/25 08:00:53;;;;;;;3.22;2.08;;;;;;;;;;4973098;28;20057;-72
2023/10/25 08:03:19;;;;;;;4.35;1.90;;;;;;;;;;4973300;28;20150;-70
2023/10/25 08:05:44;;;;;;;2.17;1.80;;;;;;;;;;4973189;28;20431;-69
2023/10/25 08:08:10;;;;;;;5.18;1.95;;;;;;;;;;4973056;28;20065;-69
2023/10/25 08:10:36;;;;;;;2.63;1.92;;;;;;;;;;4972971;28;20023;-71
2023/10/25 08:13:01;;;;;;;3.10;1.77;;;;;;;;;;4972887;28;20364;-67
2023/10/25 08:15:27;;;;;;;3.30;2.10;;;;;;;;;;4972930;28;20054;-68
2023/10/25 08:17:53;;;;;;;1.70;1.60;;;;;;;;;;4973039;28;20032;-68
2023/10/25 08:20:19;;;;;;;3.70;2.20;;;;;;;;;;4973186;28;20049;-68
2023/10/25 08:22:44;;;;;;;2.80;1.95;;;;;;;;;;4972613;28;20034;-68
2023/10/25 08:25:10;;;;;;;2.47;2.00;;;;;;;;;;4971399;28;20026;-67
2023/10/25 08:27:36;;;;;;;2.88;2.03;;;;;;;;;;4972773;28;20027;-68
2023/10/25 08:30:03;;;;;;;2.13;1.70;;;;;;;;;;4972852;28;20511;-69
2023/10/25 08:32:29;;;;;;;3.42;1.98;;;;;;;;;;4972580;28;20039;-71
2023/10/25 08:34:54;;;;;;;5.65;1.90;;;;;;;;;;4972650;28;20026;-69
2023/10/25 08:37:20;;;;;;;6.03;2.28;;;;;;;;;;4972677;28;20038;-67
2023/10/25 08:39:45;;;;;;;3.75;1.60;;;;;;;;;;4972278;28;20097;-67
2023/10/25 08:42:12;;;;;;;4.55;1.75;;;;;;;;;;4972654;28;20411;-67
2023/10/25 08:44:40;;;;;;;5.82;1.75;;;;;;;;;;4972431;28;20030;-68
2023/10/25 08:47:08;;;;;;;3.42;1.80;;;;;;;;;;4972441;28;20543;-67
2023/10/25 08:49:34;;;;;;;2.42;1.67;;;;;;;;;;4972483;28;20498;-68
2023/10/25 08:52:01;;;;;;;3.97;1.67;;;;;;;;;;4972063;28;20078;-67
2023/10/25 08:54:28;;;;;;;1.88;1.58;;;;;;;;;;4972448;28;20399;-67
2023/10/25 08:56:54;;;;;;;4.03;2.10;;;;;;;;;;4972325;28;20039;-67
2023/10/25 08:59:20;;;;;;;2.72;1.83;;;;;;;;;;4972255;28;20038;-67
2023/10/25 09:01:46;;;;;;;2.10;1.80;;;;;;;;;;4972292;28;20066;-67
2023/10/25 09:04:12;;;;;;;2.03;1.70;;;;;;;;;;4971343;28;20035;-69
2023/10/25 09:06:38;;;;;;;1.83;1.65;;;;;;;;;;4972232;28;20114;-68
2023/10/25 09:09:07;;;;;;;5.13;2.50;;;;;;;;;;4972212;28;20071;-65
2023/10/25 09:11:44;;;;;;;3.78;2.85;;;;;;;;;;4972373;28;20030;-65
2023/10/25 09:14:10;;;;;;;4.57;2.47;;;;;;;;;;4972109;28;20118;-66
2023/10/25 09:16:40;;;;;;;6.10;2.10;;;;;;;;;;4971443;28;20059;-65
2023/10/25 09:19:06;;;;;;;3.75;2.08;;;;;;;;;;4973002;28;20026;-66
2023/10/25 09:21:31;;;;;;;3.95;2.47;;;;;;;;;;4973801;28;20105;-65
2023/10/25 09:24:07;;;;;;;3.58;2.22;;;;;;;;;;4983386;28;20031;-65
2023/10/25 09:26:39;;;;;;;2.28;1.60;;;;;;;;;;4987247;28;20379;-66
2023/10/25 09:29:07;;;;;;;2.15;1.90;;;;;;;;;;4989039;28;20023;-66
2023/10/25 09:31:34;;;;;;;3.00;2.20;;;;;;;;;;4981587;28;20487;-66
2023/10/25 09:34:02;;;;;;;6.28;2.25;;;;;;;;;;4991489;28;20097;-66
2023/10/25 09:36:28;;;;;;;3.58;2.33;;;;;;;;;;4987054;28;20034;-67
2023/10/25 09:38:55;;;;;;;2.50;2.30;;;;;;;;;;4991128;28;20109;-65
2023/10/25 09:41:21;;;;;;;3.13;2.75;;;;;;;;;;4991522;28;20138;-65
2023/10/25 09:43:49;;;;;;;2.53;2.33;;;;;;;;;;4992931;28;20033;-65
2023/10/25 09:46:19;;;;;;;3.75;2.67;;;;;;;;;;4992913;28;20097;-65
2023/10/25 09:49:06;;;;;;;5.05;2.00;;;;;;;;;;4992863;28;20077;-65
2023/10/25 09:52:01;;;;;;;2.38;2.17;;;;;;;;;;4992860;28;20022;-65
2023/10/25 09:54:36;;;;;;;3.05;2.00;;;;;;;;;;4992764;28;20053;-65
2023/10/25 09:57:04;;;;;;;6.78;2.47;;;;;;;;;;4993082;28;20038;-66
2023/10/25 09:59:33;;;;;;;3.72;1.90;;;;;;;;;;4992774;28;20030;-65
2023/10/25 10:02:01;;;;;;;3.13;2.25;;;;;;;;;;4992794;28;20081;-66
2023/10/25 10:04:41;;;;;;;1.88;1.70;;;;;;;;;;4992755;28;20030;-65
2023/10/25 10:07:43;;;;;;;4.88;2.10;;;;;;;;;;4992961;28;20030;-65
2023/10/25 10:10:31;;;;;;;1.95;1.80;;;;;;;;;;4992594;28;20041;-65
2023/10/25 10:12:56;;;;;;;3.33;1.85;;;;;;;;;;4993036;28;20030;-64
2023/10/25 10:16:01;;;;;;;2.83;2.22;;;;;;;;;;4995166;28;20076;-64
2023/10/25 10:18:37;;;;;;;2.88;2.42;;;;;;;;;;4996169;28;20030;-65
2023/10/25 10:21:05;;;;;;;2.85;2.25;;;;;;;;;;4996348;28;20060;-64
2023/10/25 10:23:39;;;;;;;2.28;1.90;;;;;;;;;;4996081;28;20027;-64
2023/10/25 10:26:06;;;;;;;3.92;2.33;;;;;;;;;;4996186;28;20057;-65
2023/10/25 10:28:47;;;;;;;3.50;2.40;;;;;;;;;;4996214;28;20042;-65
2023/10/25 10:31:14;;;;;;;4.30;2.20;;;;;;;;;;4995809;28;20034;-64
2023/10/25 10:33:43;;;;;;;2.58;1.90;;;;;;;;;;4996101;28;20461;-66
2023/10/25 10:36:09;;;;;;;2.20;1.90;;;;;;;;;;4995983;28;20030;-65
2023/10/25 10:39:12;;;;;;;2.08;1.88;;;;;;;;;;4995830;28;20269;-65
2023/10/25 10:41:39;;;;;;;2.90;1.80;;;;;;;;;;4995523;28;20105;-66
2023/10/25 10:44:05;;;;;;;5.05;2.00;;;;;;;;;;4994439;28;20117;-66
2023/10/25 10:46:31;;;;;;;3.47;1.90;;;;;;;;;;4995643;28;20105;-66
2023/10/25 10:49:01;;;;;;;1.75;1.63;;;;;;;;;;4995859;28;20150;-66
2023/10/25 10:51:27;;;;;;;2.45;2.05;;;;;;;;;;4996171;28;20376;-65
2023/10/25 10:53:53;;;;;;;4.35;2.30;;;;;;;;;;4995404;28;20034;-66
2023/10/25 10:56:19;;;;;;;2.92;1.92;;;;;;;;;;4995512;28;20085;-65
2023/10/25 10:58:45;;;;;;;2.00;1.80;;;;;;;;;;4993975;28;20022;-66
2023/10/25 11:01:11;;;;;;;2.33;2.13;;;;;;;;;;4995371;28;20022;-65
2023/10/25 11:03:37;;;;;;;1.92;1.75;;;;;;;;;;4995329;28;20046;-65
2023/10/25 11:06:05;;;;;;;2.92;2.00;;;;;;;;;;4984029;28;20035;-65
2023/10/25 11:08:35;;;;;;;5.05;2.53;;;;;;;;;;4975679;28;20479;-67
2023/10/25 11:11:01;;;;;;;2.53;1.83;;;;;;;;;;4974729;28;20369;-66
2023/10/25 11:13:28;;;;;;;7.03;2.15;;;;;;;;;;4975703;28;20034;-67
2023/10/25 11:16:08;;;;;;;3.83;2.15;;;;;;;;;;4975430;28;20038;-66
2023/10/25 11:18:35;;;;;;;2.72;1.88;;;;;;;;;;4975966;28;20541;-65
2023/10/25 11:21:01;;;;;;;2.30;2.00;;;;;;;;;;4976537;28;20034;-67
2023/10/25 11:23:27;;;;;;;2.15;1.90;;;;;;;;;;4992483;28;20188;-66
2023/10/25 11:25:53;;;;;;;2.10;1.90;;;;;;;;;;4993915;28;20035;-67
2023/10/25 11:28:20;;;;;;;2.92;2.10;;;;;;;;;;4995027;28;20493;-67
2023/10/25 11:30:48;;;;;;;2.25;1.92;;;;;;;;;;4995078;28;20030;-66
2023/10/25 11:33:15;;;;;;;2.67;1.75;;;;;;;;;;4994780;28;20038;-66
2023/10/25 11:35:44;;;;;;;2.45;1.73;;;;;;;;;;4994708;28;20518;-66
2023/10/25 11:38:10;;;;;;;2.55;2.00;;;;;;;;;;4994746;28;20026;-66
2023/10/25 11:40:39;;;;;;;2.25;1.80;;;;;;;;;;4994407;28;20125;-66
2023/10/25 11:43:08;;;;;;;2.13;1.92;;;;;;;;;;4986349;28;20027;-66
2023/10/25 11:45:37;;;;;;;3.17;1.80;;;;;;;;;;4972878;28;20029;-66
2023/10/25 11:48:04;;;;;;;1.83;1.70;;;;;;;;;;4974468;28;20034;-66
2023/10/25 11:50:30;;;;;;;4.63;2.03;;;;;;;;;;4975048;28;20023;-66
2023/10/25 11:52:55;;;;;;;2.30;1.90;;;;;;;;;;4974522;28;20049;-66
2023/10/25 11:55:21;;;;;;;3.00;1.70;;;;;;;;;;4973104;28;20035;-64
2023/10/25 11:57:47;;;;;;;3.35;1.92;;;;;;;;;;4974544;28;20487;-66
2023/10/25 12:00:13;;;;;;;2.00;1.90;;;;;;;;;;4974296;28;20423;-66
2023/10/25 12:02:38;;;;;;;2.20;2.00;;;;;;;;;;4978208;28;20035;-66
2023/10/25 12:05:04;;;;;;;2.47;1.70;;;;;;;;;;4973574;28;20030;-66
2023/10/25 12:07:31;;;;;;;2.90;1.80;;;;;;;;;;4972611;28;20031;-66
2023/10/25 12:09:57;;;;;;;4.03;2.00;;;;;;;;;;4973166;28;20033;-65
2023/10/25 12:12:24;;;;;;;2.10;1.90;;;;;;;;;;4971075;28;20026;-67
2023/10/25 12:14:50;;;;;;;3.13;2.10;;;;;;;;;;4974169;28;20080;-67
2023/10/25 12:17:15;;;;;;;2.33;1.80;;;;;;;;;;4992874;28;20123;-68
2023/10/25 12:19:41;;;;;;;1.75;1.50;;;;;;;;;;4992754;28;20058;-67
2023/10/25 12:22:10;;;;;;;2.20;1.50;;;;;;;;;;4977765;28;20507;-68
2023/10/25 12:24:37;;;;;;;1.30;1.20;;;;;;;;;;4973570;28;20030;-68
2023/10/25 12:27:04;;;;;;;1.83;1.42;;;;;;;;;;4973523;28;20078;-69
2023/10/25 12:29:30;;;;;;;2.67;1.40;;;;;;;;;;4973362;28;20102;-69
2023/10/25 12:31:56;;;;;;;2.40;1.48;;;;;;;;;;4973271;28;20487;-67
2023/10/25 12:34:22;;;;;;;1.48;1.30;;;;;;;;;;4972992;28;20038;-69
2023/10/25 12:36:49;;;;;;;2.95;1.35;;;;;;;;;;4972554;28;20033;-69
2023/10/25 12:39:16;;;;;;;1.42;1.33;;;;;;;;;;4972779;28;20114;-69
2023/10/25 12:41:42;;;;;;;2.47;1.10;;;;;;;;;;4972388;28;20055;-70
2023/10/25 12:44:12;;;;;;;1.20;1.10;;;;;;;;;;4975033;28;20026;-68
2023/10/25 12:46:41;;;;;;;1.77;1.20;;;;;;;;;;4972534;28;20431;-68
2023/10/25 12:49:08;;;;;;;2.55;1.50;;;;;;;;;;4972635;28;20026;-68
2023/10/25 12:51:35;;;;;;;3.35;1.48;;;;;;;;;;4970163;28;20487;-66
2023/10/25 12:54:00;;;;;;;2.10;1.38;;;;;;;;;;4973022;28;20038;-66
2023/10/25 12:56:27;;;;;;;1.95;1.33;;;;;;;;;;4973107;28;20038;-67
2023/10/25 12:58:52;;;;;;;2.45;1.40;;;;;;;;;;4972020;28;20069;-67
2023/10/25 13:01:22;;;;;;;1.30;1.20;;;;;;;;;;4972873;28;20062;-67
2023/10/25 13:03:49;;;;;;;1.67;1.40;;;;;;;;;;4972928;28;20026;-67
2023/10/25 13:06:15;;;;;;;1.42;1.25;;;;;;;;;;4973026;28;20046;-69
2023/10/25 13:08:40;;;;;;;1.30;1.20;;;;;;;;;;4972873;28;20369;-69
2023/10/25 13:11:07;;;;;;;2.15;1.20;;;;;;;;;;4973142;28;20023;-65
2023/10/25 13:13:32;;;;;;;1.55;1.20;;;;;;;;;;4972812;28;20077;-66
2023/10/25 13:15:58;;;;;;;1.10;1.10;;;;;;;;;;4972781;28;20027;-70
2023/10/25 13:18:23;;;;;;;1.92;1.20;;;;;;;;;;4972859;28;20023;-67
2023/10/25 13:20:49;;;;;;;1.05;1.00;;;;;;;;;;4972740;28;20472;-69
2023/10/25 13:23:15;;;;;;;1.85;1.20;;;;;;;;;;4971410;28;20035;-69
2023/10/25 13:25:40;;;;;;;1.63;1.20;;;;;;;;;;4972716;28;20027;-70
2023/10/25 13:28:06;;;;;;;1.13;1.02;;;;;;;;;;4983541;28;20150;-69
2023/10/25 13:30:32;;;;;;;1.27;1.02;;;;;;;;;;4989192;28;20031;-68
2023/10/25 13:32:57;;;;;;;1.30;1.20;;;;;;;;;;4990981;28;20475;-68
2023/10/25 13:35:23;;;;;;;1.27;1.20;;;;;;;;;;4984846;28;20423;-68
2023/10/25 13:37:48;;;;;;;4.05;2.15;;;;;;;;;;4981451;28;20485;-68
2023/10/25 13:40:14;;;;;;;2.38;0.88;;;;;;;;;;4978080;28;20122;-68
2023/10/25 13:42:40;;;;;;;1.55;1.02;;;;;;;;;;4987369;28;20640;-68
2023/10/25 13:45:06;;;;;;;2.75;1.00;;;;;;;;;;4993027;28;20037;-68
2023/10/25 13:47:32;;;;;;;1.55;1.10;;;;;;;;;;4988543;28;20035;-67
2023/10/25 13:49:58;;;;;;;1.00;1.00;;;;;;;;;;4974300;28;20027;-67
2023/10/25 13:52:23;;;;;;;2.05;1.10;;;;;;;;;;4977320;28;20054;-67
2023/10/25 13:54:49;;;;;;;2.30;1.10;;;;;;;;;;4977236;28;20082;-66
2023/10/25 13:57:15;;;;;;;3.80;1.40;;;;;;;;;;4977356;28;20054;-67
2023/10/25 13:59:40;;;;;;;1.10;1.02;;;;;;;;;;4977908;28;20050;-67
2023/10/25 14:02:08;;;;;;;1.30;1.20;;;;;;;;;;4977668;28;20097;-66
2023/10/25 14:04:33;;;;;;;3.42;1.10;;;;;;;;;;4977220;28;20030;-67
2023/10/25 14:06:59;;;;;;;1.42;1.10;;;;;;;;;;4977168;28;20384;-67
2023/10/25 14:09:24;;;;;;;1.27;1.00;;;;;;;;;;4977212;28;20027;-67
2023/10/25 14:11:51;;;;;;;1.15;1.05;;;;;;;;;;4976738;28;20038;-68
2023/10/25 14:14:17;;;;;;;1.20;1.05;;;;;;;;;;4977296;28;20034;-67
2023/10/25 14:16:44;;;;;;;1.38;0.95;;;;;;;;;;4977171;28;20027;-67
2023/10/25 14:19:10;;;;;;;1.38;1.10;;;;;;;;;;4976973;28;20058;-69
2023/10/25 14:21:37;;;;;;;1.30;1.08;;;;;;;;;;4977238;28;20480;-66
2023/10/25 14:24:04;;;;;;;0.98;0.80;;;;;;;;;;4976947;28;20073;-67
2023/10/25 14:26:29;;;;;;;1.23;1.00;;;;;;;;;;4977071;28;20055;-67
2023/10/25 14:28:55;;;;;;;1.13;1.02;;;;;;;;;;4977104;28;20057;-68
2023/10/25 14:31:21;;;;;;;5.05;1.30;;;;;;;;;;4976546;28;20038;-67
2023/10/25 14:33:46;;;;;;;5.63;1.20;;;;;;;;;;4976792;28;20031;-69
2023/10/25 14:36:15;;;;;;;1.50;1.10;;;;;;;;;;4976336;28;20027;-67
2023/10/25 14:38:41;;;;;;;3.10;1.00;;;;;;;;;;4976305;28;20511;-66
2023/10/25 14:41:08;;;;;;;1.00;0.93;;;;;;;;;;4967826;28;20051;-71
2023/10/25 14:43:34;;;;;;;1.98;1.08;;;;;;;;;;4957122;29;20034;-67
2023/10/25 14:45:59;;;;;;;2.15;1.00;;;;;;;;;;4957513;29;20027;-67
2023/10/25 14:48:25;;;;;;;1.52;1.20;;;;;;;;;;4957094;29;20082;-66
2023/10/25 14:50:50;;;;;;;2.78;1.20;;;;;;;;;;4957778;29;20030;-70
2023/10/25 14:53:16;;;;;;;1.17;0.93;;;;;;;;;;4957554;29;20114;-67
2023/10/25 14:55:42;;;;;;;2.92;1.10;;;;;;;;;;4957223;29;20031;-69
2023/10/25 14:58:08;;;;;;;1.20;1.10;;;;;;;;;;4957067;29;20591;-67
2023/10/25 15:00:34;;;;;;;1.73;0.93;;;;;;;;;;4957208;28;20050;-66
2023/10/25 15:03:00;;;;;;;2.25;1.17;;;;;;;;;;4957251;29;20622;-67
2023/10/25 15:05:26;;;;;;;3.60;1.38;;;;;;;;;;4957408;29;20027;-69
2023/10/25 15:07:52;;;;;;;2.75;1.25;;;;;;;;;;4956809;29;20031;-68
2023/10/25 15:10:18;;;;;;;2.88;1.17;;;;;;;;;;4959678;28;20034;-67
2023/10/25 15:12:44;;;;;;;4.65;1.70;;;;;;;;;;4967419;28;20027;-67
2023/10/25 15:15:10;;;;;;;2.22;1.20;;;;;;;;;;4974967;28;20102;-70
2023/10/25 15:17:36;;;;;;;1.17;0.90;;;;;;;;;;4974390;28;20396;-68
2023/10/25 15:20:03;;;;;;;2.30;1.30;;;;;;;;;;4975098;28;20055;-69
2023/10/25 15:22:28;;;;;;;3.67;1.13;;;;;;;;;;4986415;28;20033;-68
2023/10/25 15:24:54;;;;;;;1.20;1.05;;;;;;;;;;4990820;28;20030;-68
2023/10/25 15:27:19;;;;;;;2.30;1.20;;;;;;;;;;4991915;28;20015;-68
2023/10/25 15:29:51;;;;;;;3.67;1.13;;;;;;;;;;4990385;28;20364;-68
2023/10/25 15:32:16;;;;;;;1.25;1.02;;;;;;;;;;4985661;28;20037;-68
2023/10/25 15:34:42;;;;;;;3.90;1.25;;;;;;;;;;4994145;28;20502;-68
2023/10/25 15:37:08;;;;;;;3.88;1.10;;;;;;;;;;4984159;28;20027;-68
2023/10/25 15:39:34;;;;;;;2.00;1.20;;;;;;;;;;4974896;28;20034;-67
2023/10/25 15:42:00;;;;;;;3.45;0.90;;;;;;;;;;4974935;28;20475;-69
2023/10/25 15:44:26;;;;;;;2.22;0.95;;;;;;;;;;4991833;28;20097;-69
2023/10/25 15:46:51;;;;;;;3.65;0.85;;;;;;;;;;4989540;28;20031;-67
2023/10/25 15:49:17;;;;;;;2.40;0.80;;;;;;;;;;4991017;28;20022;-68
2023/10/25 15:51:42;;;;;;;2.33;1.27;;;;;;;;;;4987061;28;20034;-68
2023/10/25 15:54:08;;;;;;;2.03;1.10;;;;;;;;;;4986741;28;20096;-69
2023/10/25 15:56:34;;;;;;;4.50;1.20;;;;;;;;;;4988573;28;20026;-68
2023/10/25 15:58:59;;;;;;;1.20;1.00;;;;;;;;;;4988737;28;20097;-68
2023/10/25 16:01:25;;;;;;;2.88;1.08;;;;;;;;;;4988325;28;20029;-68
2023/10/25 16:03:51;;;;;;;3.50;0.90;;;;;;;;;;4987055;28;20482;-67
2023/10/25 16:06:17;;;;;;;1.20;1.10;;;;;;;;;;4987566;28;20030;-68
2023/10/25 16:08:42;;;;;;;3.60;1.15;;;;;;;;;;4987547;28;20134;-67
2023/10/25 16:11:10;;;;;;;1.92;1.00;;;;;;;;;;4992788;28;20026;-67
2023/10/25 16:13:36;;;;;;;1.42;0.95;;;;;;;;;;4973672;28;20037;-66
2023/10/25 16:16:07;;;;;;;1.73;0.93;;;;;;;;;;4972112;28;20040;-67
2023/10/25 16:18:34;;;;;;;2.10;1.02;;;;;;;;;;4973406;28;20491;-67
2023/10/25 16:21:06;;;;;;;2.50;0.95;;;;;;;;;;4972360;28;20042;-68
2023/10/25 16:23:41;;;;;;;1.60;1.20;;;;;;;;;;4973790;28;20031;-66
2023/10/25 16:26:08;;;;;;;1.23;1.00;;;;;;;;;;4974645;28;20046;-67
2023/10/25 16:28:34;;;;;;;1.45;1.23;;;;;;;;;;4974281;28;20030;-66
2023/10/25 16:31:03;;;;;;;1.50;1.23;;;;;;;;;;4974770;28;20031;-67
2023/10/25 16:33:29;;;;;;;1.43;1.20;;;;;;;;;;4974382;28;20518;-67
2023/10/25 16:36:01;;;;;;;2.35;1.33;;;;;;;;;;4974556;28;20023;-67
2023/10/25 16:38:27;;;;;;;1.10;1.10;;;;;;;;;;4975020;28;20562;-67
2023/10/25 16:40:52;;;;;;;3.10;1.10;;;;;;;;;;4973918;28;20078;-67
2023/10/25 16:43:18;;;;;;;1.63;1.20;;;;;;;;;;4974153;28;20081;-66
2023/10/25 16:45:43;;;;;;;1.83;1.10;;;;;;;;;;4974268;28;20081;-67
2023/10/25 16:48:09;;;;;;;0.90;0.90;;;;;;;;;;4974073;28;20031;-66
2023/10/25 16:50:36;;;;;;;2.45;1.00;;;;;;;;;;4973341;28;20548;-67
2023/10/25 16:53:01;;;;;;;3.17;1.40;;;;;;;;;;4974240;28;20042;-66
2023/10/25 16:55:27;;;;;;;1.48;1.08;;;;;;;;;;4974231;28;20027;-66
2023/10/25 16:57:53;;;;;;;1.45;1.10;;;;;;;;;;4973884;28;20057;-67
2023/10/25 17:00:19;;;;;;;1.35;1.25;;;;;;;;;;4974005;28;20085;-66
2023/10/25 17:02:44;;;;;;;1.80;1.08;;;;;;;;;;4974384;28;20427;-66
2023/10/25 17:05:10;;;;;;;2.72;1.02;;;;;;;;;;4974052;28;20023;-67
2023/10/25 17:07:35;;;;;;;1.20;1.13;;;;;;;;;;4972741;28;20030;-67
2023/10/25 17:10:01;;;;;;;1.58;1.10;;;;;;;;;;4974070;28;20030;-67
2023/10/25 17:12:27;;;;;;;2.33;1.50;;;;;;;;;;4972384;28;20027;-67
2023/10/25 17:14:53;;;;;;;3.13;1.10;;;;;;;;;;4968645;28;20109;-64
2023/10/25 17:17:19;;;;;;;1.35;1.20;;;;;;;;;;4973501;28;20118;-64
2023/10/25 17:19:45;;;;;;;1.30;1.20;;;;;;;;;;4973396;28;20058;-64
2023/10/25 17:22:11;;;;;;;2.30;1.20;;;;;;;;;;4972239;28;20015;-64
2023/10/25 17:24:37;;;;;;;2.30;1.10;;;;;;;;;;4973974;28;20514;-64
2023/10/25 17:27:03;;;;;;;2.33;1.20;;;;;;;;;;4977387;28;20031;-65
2023/10/25 17:29:29;;;;;;;1.40;1.30;;;;;;;;;;4977273;28;20035;-65
2023/10/25 17:31:54;;;;;;;3.70;1.40;;;;;;;;;;4977628;28;20034;-65
2023/10/25 17:34:20;;;;;;;1.30;1.15;;;;;;;;;;4977551;28;20031;-65
2023/10/25 17:36:46;;;;;;;1.80;1.00;;;;;;;;;;4977396;28;20113;-65
2023/10/25 17:39:11;;;;;;;2.42;1.25;;;;;;;;;;4977747;28;20031;-64
2023/10/25 17:41:38;;;;;;;4.07;1.67;;;;;;;;;;4977108;28;20089;-65
2023/10/25 17:44:05;;;;;;;0.98;0.88;;;;;;;;;;4977283;28;20531;-65
2023/10/25 17:46:30;;;;;;;1.35;1.10;;;;;;;;;;4976925;28;20037;-65
2023/10/25 17:48:56;;;;;;;1.52;1.10;;;;;;;;;;4977049;28;20031;-65
2023/10/25 17:51:21;;;;;;;1.20;1.10;;;;;;;;;;4977180;28;20023;-65
2023/10/25 17:53:47;;;;;;;2.00;1.15;;;;;;;;;;4976894;28;20114;-66
2023/10/25 17:56:13;;;;;;;2.00;1.17;;;;;;;;;;4977023;28;20440;-65
2023/10/25 17:58:38;;;;;;;1.00;1.00;;;;;;;;;;4976977;28;20058;-65
2023/10/25 18:01:04;;;;;;;2.22;1.27;;;;;;;;;;4976762;28;20019;-65
2023/10/25 18:03:30;;;;;;;3.25;1.20;;;;;;;;;;4976802;28;20073;-65
2023/10/25 18:06:05;;;;;;;1.98;1.10;;;;;;;;;;4976340;28;20035;-65
2023/10/25 18:08:31;;;;;;;1.10;1.00;;;;;;;;;;4976246;28;20030;-71
2023/10/25 18:10:57;;;;;;;1.20;1.10;;;;;;;;;;4976295;28;20054;-70
2023/10/25 18:13:24;;;;;;;2.38;1.30;;;;;;;;;;4976071;28;20094;-70
2023/10/25 18:15:50;;;;;;;1.20;1.10;;;;;;;;;;4976204;28;20019;-73
2023/10/25 18:18:17;;;;;;;1.55;1.10;;;;;;;;;;4976859;28;20495;-69
2023/10/25 18:20:49;;;;;;;2.20;1.20;;;;;;;;;;4976935;28;20042;-67
2023/10/25 18:23:15;;;;;;;1.83;1.15;;;;;;;;;;4976699;28;20071;-67
2023/10/25 18:25:40;;;;;;;1.60;1.15;;;;;;;;;;4976888;28;20062;-67
2023/10/25 18:28:06;;;;;;;2.00;1.00;;;;;;;;;;4976973;28;20539;-67
2023/10/25 18:30:31;;;;;;;1.45;1.13;;;;;;;;;;4976216;28;20476;-67
2023/10/25 18:32:57;;;;;;;0.95;0.93;;;;;;;;;;4975936;28;20480;-67
2023/10/25 18:35:24;;;;;;;1.60;1.17;;;;;;;;;;4973154;28;20392;-68
2023/10/25 18:37:50;;;;;;;4.05;1.27;;;;;;;;;;4976156;28;20034;-69
2023/10/25 18:40:16;;;;;;;2.90;1.17;;;;;;;;;;4976135;28;20043;-68
2023/10/25 18:42:42;;;;;;;2.08;1.13;;;;;;;;;;4976533;28;20042;-68
2023/10/25 18:45:08;;;;;;;1.65;1.25;;;;;;;;;;4976267;28;20388;-68
2023/10/25 18:47:33;;;;;;;1.85;1.17;;;;;;;;;;4976209;28;20027;-68
2023/10/25 18:49:59;;;;;;;1.52;1.10;;;;;;;;;;4975922;28;20069;-70
2023/10/25 18:52:25;;;;;;;1.77;1.20;;;;;;;;;;4975366;28;20498;-68
2023/10/25 18:55:01;;;;;;;1.08;1.00;;;;;;;;;;4975768;28;20027;-68
2023/10/25 18:57:27;;;;;;;1.52;1.20;;;;;;;;;;4976148;28;20499;-68
2023/10/25 18:59:56;;;;;;;1.02;0.95;;;;;;;;;;4976007;28;20037;-69
2023/10/25 19:02:27;;;;;;;0.93;0.93;;;;;;;;;;4976214;28;20026;-68
2023/10/25 19:04:55;;;;;;;1.17;1.08;;;;;;;;;;4975955;28;20031;-69
2023/10/25 19:07:20;;;;;;;0.90;0.90;;;;;;;;;;4975961;28;20381;-72
2023/10/25 19:09:46;;;;;;;1.10;1.00;;;;;;;;;;4975236;28;20027;-71
2023/10/25 19:12:14;;;;;;;2.70;1.20;;;;;;;;;;4975422;28;20022;-74
2023/10/25 19:14:40;;;;;;;3.30;1.30;;;;;;;;;;4975621;28;20035;-74
2023/10/25 19:17:06;;;;;;;3.10;1.30;;;;;;;;;;4976893;28;20098;-73
2023/10/25 19:19:31;;;;;;;5.20;1.70;;;;;;;;;;4960829;28;20123;-75
2023/10/25 19:21:57;;;;;;;5.05;1.92;;;;;;;;;;4966183;28;20026;-73
2023/10/25 19:24:22;;;;;;;3.53;1.67;;;;;;;;;;4974438;28;20550;-73
2023/10/25 19:26:52;;;;;;;1.75;1.20;;;;;;;;;;4974216;28;20030;-73
2023/10/25 19:29:18;;;;;;;3.38;1.38;;;;;;;;;;4972853;28;20070;-72
2023/10/25 19:31:44;;;;;;;4.88;1.42;;;;;;;;;;4974022;28;20027;-75
2023/10/25 19:34:09;;;;;;;3.05;1.50;;;;;;;;;;4974058;28;20030;-72
2023/10/25 19:36:35;;;;;;;3.30;1.40;;;;;;;;;;4974508;28;20030;-73
2023/10/25 19:39:04;;;;;;;2.95;1.30;;;;;;;;;;4973898;28;20378;-73
2023/10/25 19:41:34;;;;;;;2.43;1.53;;;;;;;;;;4974147;28;20054;-73
2023/10/25 19:44:00;;;;;;;6.27;1.33;;;;;;;;;;4958995;28;20392;-74
2023/10/25 19:46:30;;;;;;;6.28;1.40;;;;;;;;;;4954917;28;20031;-71
2023/10/25 19:48:57;;;;;;;2.22;1.20;;;;;;;;;;4969123;28;20034;-71
2023/10/25 19:51:23;;;;;;;2.40;1.35;;;;;;;;;;4973682;28;20109;-71
2023/10/25 19:53:49;;;;;;;2.88;1.48;;;;;;;;;;4973695;28;20133;-71
2023/10/25 19:56:14;;;;;;;2.70;1.10;;;;;;;;;;4973696;28;20034;-72
2023/10/25 19:58:40;;;;;;;2.17;1.50;;;;;;;;;;4973253;28;20037;-71
2023/10/25 20:01:06;;;;;;;1.73;1.25;;;;;;;;;;4971017;28;20029;-71
2023/10/25 20:03:31;;;;;;;2.35;1.30;;;;;;;;;;4974379;28;20026;-70
2023/10/25 20:06:07;;;;;;;1.58;1.15;;;;;;;;;;4974181;28;20027;-70
2023/10/25 20:08:32;;;;;;;2.17;1.20;;;;;;;;;;4972264;28;20067;-70
2023/10/25 20:11:01;;;;;;;5.53;1.52;;;;;;;;;;4974300;28;20026;-71
2023/10/25 20:13:26;;;;;;;2.47;1.10;;;;;;;;;;4973928;28;20026;-73
2023/10/25 20:15:53;;;;;;;1.52;1.20;;;;;;;;;;4974288;28;20034;-72
2023/10/25 20:18:18;;;;;;;1.88;1.75;;;;;;;;;;4974289;28;20034;-73
2023/10/25 20:20:44;;;;;;;5.70;1.30;;;;;;;;;;4973956;28;20023;-72
2023/10/25 20:23:10;;;;;;;3.30;1.45;;;;;;;;;;4973782;28;20058;-72
2023/10/25 20:25:35;;;;;;;5.07;1.60;;;;;;;;;;4973953;28;20025;-70
2023/10/25 20:28:01;;;;;;;5.82;1.60;;;;;;;;;;4971885;28;20030;-71
2023/10/25 20:30:27;;;;;;;2.10;1.52;;;;;;;;;;4976598;28;20026;-71
2023/10/25 20:32:52;;;;;;;1.55;1.42;;;;;;;;;;4980236;28;20045;-71
2023/10/25 20:35:18;;;;;;;4.05;1.67;;;;;;;;;;4987866;28;20388;-71
2023/10/25 20:37:44;;;;;;;2.58;1.48;;;;;;;;;;4991740;28;20085;-73
2023/10/25 20:40:10;;;;;;;4.28;1.80;;;;;;;;;;4993822;28;20054;-69